sensor_id;sensor_type;location;lat;lon;timestamp;pressure;altitude;pressure_sealevel;temperature;humidity
55014;BME280;40916;51.632;5.552;2022-11-20T00:00:37;1008.6045733268164;;;-4.043408134553761;0
55014;BME280;40916;51.632;5.552;2022-11-20T00:01:36;1008.6353669688849;;;-4.035369742762853;0
55014;BME280;40916;51.632;5.552;2022-11-20T00:02:36;1008.5417065126309;;;-4.051447396760398;0
55014;BME280;40916;51.632;5.552;2022-11-20T00:03:36;1008.5844679279429;;;-4.051447396760398;0
55014;BME280;40916;51.632;5.552;2022-11-20T00:04:36;1008.5549396025673;;;-4.067528533807714;0
55014;BME280;40916;51.632;5.552;2022-11-20T00:05:37;1008.5951582842875;;;-4.051447396760398;0
55014;BME280;40916;51.632;5.552;2022-11-20T00:06:37;1008.5335596613559;;;-4.067528533807714;0
55014;BME280;40916;51.632;5.552;2022-11-20T00:07:37;1008.5737775726051;;;-4.051447396760398;0
55014;BME280;40916;51.632;5.552;2022-11-20T00:08:37;1008.606858327113;;;-4.035369742762853;0
55014;BME280;40916;51.632;5.552;2022-11-20T00:09:37;1008.5984492613231;;;-4.027332221041188;0
55014;BME280;40916;51.632;5.552;2022-11-20T00:10:37;1008.6444776522669;;;-4.003224872829584;0
55014;BME280;40916;51.632;5.552;2022-11-20T00:11:37;1008.6088393065877;;;-4.003224872829584;0
55014;BME280;40916;51.632;5.552;2022-11-20T00:12:37;1008.6276304243343;;;-3.9871576513574674;0
55014;BME280;40916;51.632;5.552;2022-11-20T00:13:38;1008.6072050657033;;;-3.971093901862332;0
55014;BME280;40916;51.632;5.552;2022-11-20T00:14:38;1008.5466155853909;;;-3.971093901862332;0
55014;BME280;40916;51.632;5.552;2022-11-20T00:15:38;1008.4967183905898;;;-3.971093901862332;0
55014;BME280;40916;51.632;5.552;2022-11-20T00:16:38;1008.5306680959274;;;-3.9389768077624723;0
55014;BME280;40916;51.632;5.552;2022-11-20T00:17:38;1008.5092820603705;;;-3.9389768077624723;0
55014;BME280;40916;51.632;5.552;2022-11-20T00:18:38;1008.549407772717;;;-3.922923457644803;0
55014;BME280;40916;51.632;5.552;2022-11-20T00:19:38;1008.5137631070075;;;-3.922923457644803;0
55014;BME280;40916;51.632;5.552;2022-11-20T00:20:38;1008.4674250583163;;;-3.922923457644803;0
55014;BME280;40916;51.632;5.552;2022-11-20T00:21:38;1008.4923763129538;;;-3.922923457644803;0
55014;BME280;40916;51.632;5.552;2022-11-20T00:22:38;1008.4340147975389;;;-3.9148980806145097;0
55014;BME280;40916;51.632;5.552;2022-11-20T00:23:38;1008.4812500521904;;;-3.8988499208923244;0
55014;BME280;40916;51.632;5.552;2022-11-20T00:24:39;1008.4144028763398;;;-3.882805217998534;0
55014;BME280;40916;51.632;5.552;2022-11-20T00:25:39;1008.4330959502491;;;-3.866763969188323;0
55014;BME280;40916;51.632;5.552;2022-11-20T00:26:39;1008.4424381971763;;;-3.858744639207604;0
55014;BME280;40916;51.632;5.552;2022-11-20T00:27:39;1008.5137376457127;;;-3.858744639207604;0
55014;BME280;40916;51.632;5.552;2022-11-20T00:28:39;1008.5359812136637;;;-3.8427085663825906;0
55014;BME280;40916;51.632;5.552;2022-11-20T00:29:39;1008.5252859109702;;;-3.8427085663825906;0
55014;BME280;40916;51.632;5.552;2022-11-20T00:30:39;1008.523566516002;;;-3.8747841620044206;0
55014;BME280;40916;51.632;5.552;2022-11-20T00:31:39;1008.538692463279;;;-3.858744639207604;0
55014;BME280;40916;51.632;5.552;2022-11-20T00:32:39;1008.5271313630667;;;-3.8747841620044206;0
55014;BME280;40916;51.632;5.552;2022-11-20T00:33:39;1008.520867593029;;;-3.858744639207604;0
55014;BME280;40916;51.632;5.552;2022-11-20T00:34:39;1008.406392314233;;;-3.8988499208923244;0
55014;BME280;40916;51.632;5.552;2022-11-20T00:35:40;1008.4634267767711;;;-3.8988499208923244;0
55014;BME280;40916;51.632;5.552;2022-11-20T00:36:40;1008.5004087034888;;;-3.906873568478204;0
55014;BME280;40916;51.632;5.552;2022-11-20T00:37:40;1008.4188497185677;;;-3.9309496999128157;0
55014;BME280;40916;51.632;5.552;2022-11-20T00:38:40;1008.4620179855461;;;-3.9550336215833113;0
55014;BME280;40916;51.632;5.552;2022-11-20T00:39:40;1008.4931543060859;;;-3.971093901862332;0
55014;BME280;40916;51.632;5.552;2022-11-20T00:40:40;1008.4377754030537;;;-4.003224872829584;0
55014;BME280;40916;51.632;5.552;2022-11-20T00:41:40;1008.4734136950343;;;-4.003224872829584;0
55014;BME280;40916;51.632;5.552;2022-11-20T00:42:40;1008.4546159191475;;;-4.01929556904247;0
55014;BME280;40916;51.632;5.552;2022-11-20T00:43:40;1008.465307025933;;;-4.01929556904247;0
55014;BME280;40916;51.632;5.552;2022-11-20T00:44:40;1008.4882547661399;;;-4.051447396760398;0
55014;BME280;40916;51.632;5.552;2022-11-20T00:45:41;1008.5465430924843;;;-4.059487529729431;0
55014;BME280;40916;51.632;5.552;2022-11-20T00:46:41;1008.5040213302982;;;-4.083613156680347;0
55014;BME280;40916;51.632;5.552;2022-11-20T00:47:41;1008.4767771640635;;;-4.0916567761693265;0
55014;BME280;40916;51.632;5.552;2022-11-20T00:48:41;1008.4543491107668;;;-4.107746632990562;0
55014;BME280;40916;51.632;5.552;2022-11-20T00:49:41;1008.411778802983;;;-4.1318879680499805;0
55014;BME280;40916;51.632;5.552;2022-11-20T00:50:41;1008.4048101784932;;;-4.156037171263499;0
55014;BME280;40916;51.632;5.552;2022-11-20T00:51:41;1008.3728761925662;;;-4.180194252051024;0
55014;BME280;40916;51.632;5.552;2022-11-20T00:52:41;1008.283920742896;;;-4.2043592198475075;0
55014;BME280;40916;51.632;5.552;2022-11-20T00:53:42;1008.3278827620929;;;-4.212415963414561;0
55014;BME280;40916;51.632;5.552;2022-11-20T00:54:42;1008.2792251884526;;;-4.220473584716192;0
55014;BME280;40916;51.632;5.552;2022-11-20T00:55:42;1008.31017243395;;;-4.260774869519203;0
55014;BME280;40916;51.632;5.552;2022-11-20T00:56:42;1008.3172960109932;;;-4.260774869519203;0
55014;BME280;40916;51.632;5.552;2022-11-20T00:57:42;1008.3422332082591;;;-4.284966195680596;0
55014;BME280;40916;51.632;5.552;2022-11-20T00:58:43;1008.2709804820391;;;-4.309165449910289;0
55014;BME280;40916;51.632;5.552;2022-11-20T00:59:42;1008.2626406961363;;;-4.3253026952442895;0
55014;BME280;40916;51.632;5.552;2022-11-20T01:00:42;1008.3220129387225;;;-4.31723363142406;0
55014;BME280;40916;51.632;5.552;2022-11-20T01:01:42;1008.3908991435393;;;-4.252712854282532;0
55014;BME280;40916;51.632;5.552;2022-11-20T01:02:43;1008.3325736572459;;;-4.196303353664661;0
55014;BME280;40916;51.632;5.552;2022-11-20T01:03:43;1008.3095207199807;;;-4.115792871018545;0
55014;BME280;40916;51.632;5.552;2022-11-20T01:04:43;1008.3706610124437;;;-4.051447396760398;0
55014;BME280;40916;51.632;5.552;2022-11-20T01:05:43;1008.3914456402038;;;-4.003224872829584;0
55014;BME280;40916;51.632;5.552;2022-11-20T01:06:43;1008.3901470715786;;;-3.995190827923736;0
55014;BME280;40916;51.632;5.552;2022-11-20T01:07:43;1008.3758915097907;;;-3.995190827923736;0
55014;BME280;40916;51.632;5.552;2022-11-20T01:08:43;1008.3914456402038;;;-4.003224872829584;0
55014;BME280;40916;51.632;5.552;2022-11-20T01:09:43;1008.4682057176924;;;-3.971093901862332;0
55014;BME280;40916;51.632;5.552;2022-11-20T01:10:43;1008.4267443625471;;;-3.9791253427854016;0
55014;BME280;40916;51.632;5.552;2022-11-20T01:11:44;1008.5070368521289;;;-3.9470047815378777;0
55014;BME280;40916;51.632;5.552;2022-11-20T01:12:44;1008.4985890441028;;;-3.9389768077624723;0
55014;BME280;40916;51.632;5.552;2022-11-20T01:13:44;1008.5306680959274;;;-3.9389768077624723;0
55014;BME280;40916;51.632;5.552;2022-11-20T01:14:44;1008.5199750776454;;;-3.9389768077624723;0
55014;BME280;40916;51.632;5.552;2022-11-20T01:15:44;1008.5306680959274;;;-3.9389768077624723;0
55014;BME280;40916;51.632;5.552;2022-11-20T01:16:45;1008.5164107384418;;;-3.9389768077624723;0
55014;BME280;40916;51.632;5.552;2022-11-20T01:17:44;1008.5342324355786;;;-3.9389768077624723;0
55014;BME280;40916;51.632;5.552;2022-11-20T01:18:45;1008.6002173377475;;;-3.906873568478204;0
55014;BME280;40916;51.632;5.552;2022-11-20T01:19:44;1008.5431838217125;;;-3.906873568478204;0
55014;BME280;40916;51.632;5.552;2022-11-20T01:20:44;1008.4531672009854;;;-3.922923457644803;0
55014;BME280;40916;51.632;5.552;2022-11-20T01:21:45;1008.493279518685;;;-3.906873568478204;0
55014;BME280;40916;51.632;5.552;2022-11-20T01:22:45;1008.5195634770872;;;-3.9148980806145097;0
55014;BME280;40916;51.632;5.552;2022-11-20T01:23:45;1008.4317804183464;;;-3.922923457644803;0
55014;BME280;40916;51.632;5.552;2022-11-20T01:24:45;1008.4184231052743;;;-3.906873568478204;0
55014;BME280;40916;51.632;5.552;2022-11-20T01:25:45;1008.4656522426087;;;-3.8908271375134973;0
55014;BME280;40916;51.632;5.552;2022-11-20T01:26:46;1008.3970355676511;;;-3.906873568478204;0
55014;BME280;40916;51.632;5.552;2022-11-20T01:27:45;1008.3769823803196;;;-3.9148980806145097;0
55014;BME280;40916;51.632;5.552;2022-11-20T01:28:45;1008.4758801258706;;;-3.9309496999128157;0
55014;BME280;40916;51.632;5.552;2022-11-20T01:29:45;1008.4286228210611;;;-3.9470047815378777;0
55014;BME280;40916;51.632;5.552;2022-11-20T01:30:45;1008.5284225063651;;;-3.9470047815378777;0
55014;BME280;40916;51.632;5.552;2022-11-20T01:31:45;1008.3723276196234;;;-3.995190827923736;0
55014;BME280;40916;51.632;5.552;2022-11-20T01:32:46;1008.3690871011075;;;-4.01929556904247;0
55014;BME280;40916;51.632;5.552;2022-11-20T01:33:46;1008.3765085227103;;;-4.043408134553761;0
55014;BME280;40916;51.632;5.552;2022-11-20T01:34:46;1008.3380242001001;;;-4.115792871018545;0
55014;BME280;40916;51.632;5.552;2022-11-20T01:35:46;1008.401090371909;;;-4.1318879680499805;0
55014;BME280;40916;51.632;5.552;2022-11-20T01:36:46;1008.3325736572459;;;-4.196303353664661;0
55014;BME280;40916;51.632;5.552;2022-11-20T01:37:46;1008.3421946043977;;;-4.236591461925627;0
55014;BME280;40916;51.632;5.552;2022-11-20T01:38:46;1008.3671610628115;;;-4.260774869519203;0
55014;BME280;40916;51.632;5.552;2022-11-20T01:39:46;1008.3220462333732;;;-4.293031732391086;0
55014;BME280;40916;51.632;5.552;2022-11-20T01:40:53;1008.388506896654;;;-4.309165449910289;0
55014;BME280;40916;51.632;5.552;2022-11-20T01:41:47;1008.331388333406;;;-4.357587780652569;0
55014;BME280;40916;51.632;5.552;2022-11-20T01:42:47;1008.2896900887965;;;-4.389887011237896;0
55014;BME280;40916;51.632;5.552;2022-11-20T01:43:47;1008.2408245115213;;;-4.42220040967058;0
55014;BME280;40916;51.632;5.552;2022-11-20T01:44:49;1008.3512003834325;;;-4.42220040967058;0
55014;BME280;40916;51.632;5.552;2022-11-20T01:45:52;1008.4000739256189;;;-4.389887011237896;0
55014;BME280;40916;51.632;5.552;2022-11-20T01:46:50;1008.3633237633469;;;-4.381810876242259;0
55014;BME280;40916;51.632;5.552;2022-11-20T01:47:47;1008.383543377483;;;-4.3737356263823415;0
55014;BME280;40916;51.632;5.552;2022-11-20T01:48:49;1008.3228769144919;;;-4.3979640317237525;0
55014;BME280;40916;51.632;5.552;2022-11-20T01:49:48;1008.3382560825892;;;-4.406041938054532;0
55014;BME280;40916;51.632;5.552;2022-11-20T01:50:48;1008.3871042753424;;;-4.3737356263823415;0
55014;BME280;40916;51.632;5.552;2022-11-20T01:51:48;1008.430020831019;;;-4.3253026952442895;0
55014;BME280;40916;51.632;5.552;2022-11-20T01:52:49;1008.4039615401987;;;-4.293031732391086;0
55014;BME280;40916;51.632;5.552;2022-11-20T01:53:48;1008.3303484885438;;;-4.301098150350171;0
55014;BME280;40916;51.632;5.552;2022-11-20T01:54:48;1008.3398539037422;;;-4.293031732391086;0
55014;BME280;40916;51.632;5.552;2022-11-20T01:55:48;1008.4300697005131;;;-4.301098150350171;0
55014;BME280;40916;51.632;5.552;2022-11-20T01:56:48;1008.4680692128551;;;-4.293031732391086;0
55014;BME280;40916;51.632;5.552;2022-11-20T01:57:48;1008.3481558413998;;;-4.301098150350171;0
55014;BME280;40916;51.632;5.552;2022-11-20T01:58:49;1008.3671384485838;;;-4.309165449910289;0
55014;BME280;40916;51.632;5.552;2022-11-20T01:59:50;1008.3457700045354;;;-4.309165449910289;0
55014;BME280;40916;51.632;5.552;2022-11-20T02:00:49;1008.4585614914498;;;-4.301098150350171;0
55014;BME280;40916;51.632;5.552;2022-11-20T02:01:49;1008.3742056174374;;;-4.333372641723972;0
55014;BME280;40916;51.632;5.552;2022-11-20T02:02:50;1008.3586170955938;;;-4.3737356263823415;0
55014;BME280;40916;51.632;5.552;2022-11-20T02:03:49;1008.3895166045828;;;-4.365661261303821;0
55014;BME280;40916;51.632;5.552;2022-11-20T02:04:49;1008.3359800718167;;;-4.389887011237896;0
55014;BME280;40916;51.632;5.552;2022-11-20T02:05:50;1008.297951986433;;;-4.3979640317237525;0
55014;BME280;40916;51.632;5.552;2022-11-20T02:06:50;1008.3274034537628;;;-4.430280975666193;0
55014;BME280;40916;51.632;5.552;2022-11-20T02:07:49;1008.3545690850933;;;-4.446444769809869;0
55014;BME280;40916;51.632;5.552;2022-11-20T02:08:50;1008.4315624065761;;;-4.462612115862058;0
55014;BME280;40916;51.632;5.552;2022-11-20T02:09:50;1008.4003762047037;;;-4.494957475090899;0
55014;BME280;40916;51.632;5.552;2022-11-20T02:10:50;1008.3321494117714;;;-4.543502224571302;0
55014;BME280;40916;51.632;5.552;2022-11-20T02:11:50;1008.3937377684219;;;-4.551596136980336;0
55014;BME280;40916;51.632;5.552;2022-11-20T02:12:50;1008.4051265648507;;;-4.583980716405502;0
55014;BME280;40916;51.632;5.552;2022-11-20T02:13:50;1008.401175799775;;;-4.6082785373018815;0
55014;BME280;40916;51.632;5.552;2022-11-20T02:14:50;1008.39866604289;;;-4.616379600722322;0
55014;BME280;40916;51.632;5.552;2022-11-20T02:15:50;1008.3961530727477;;;-4.624481559636525;0
55014;BME280;40916;51.632;5.552;2022-11-20T02:16:50;1008.4591687298649;;;-4.616379600722322;0
55014;BME280;40916;51.632;5.552;2022-11-20T02:17:50;1008.4392734382732;;;-4.600178369015339;0
55014;BME280;40916;51.632;5.552;2022-11-20T02:18:51;1008.4082938894635;;;-4.6082785373018815;0
55014;BME280;40916;51.632;5.552;2022-11-20T02:19:51;1008.3096915617939;;;-4.616379600722322;0
55014;BME280;40916;51.632;5.552;2022-11-20T02:20:52;1008.451396653512;;;-4.583980716405502;0
55014;BME280;40916;51.632;5.552;2022-11-20T02:21:53;1008.3460485065793;;;-4.5677866400178075;0
55014;BME280;40916;51.632;5.552;2022-11-20T02:22:53;1008.2036740764814;;;-4.5677866400178075;0
55014;BME280;40916;51.632;5.552;2022-11-20T02:24:07;1008.3140142442402;;;-4.5677866400178075;0
55014;BME280;40916;51.632;5.552;2022-11-20T02:24:51;1008.3019087427147;;;-4.583980716405502;0
55014;BME280;40916;51.632;5.552;2022-11-20T02:25:51;1008.2684362898793;;;-4.600178369015339;0
55014;BME280;40916;51.632;5.552;2022-11-20T02:26:53;1008.3157587583238;;;-4.6082785373018815;0
55014;BME280;40916;51.632;5.552;2022-11-20T02:27:52;1008.2782744754326;;;-4.648792812943146;0
55014;BME280;40916;51.632;5.552;2022-11-20T02:28:52;1008.2945751215533;;;-4.665004799222412;0
55014;BME280;40916;51.632;5.552;2022-11-20T02:29:52;1008.2478310501052;;;-4.689329511971987;0
55014;BME280;40916;51.632;5.552;2022-11-20T02:30:52;1008.1725965785331;;;-4.713662313393218;0
55014;BME280;40916;51.632;5.552;2022-11-20T02:31:52;1008.1725965785331;;;-4.713662313393218;0
55014;BME280;40916;51.632;5.552;2022-11-20T02:32:52;1008.1339212927198;;;-4.746118647894615;0
55014;BME280;40916;51.632;5.552;2022-11-20T02:33:54;1008.1430283658788;;;-4.76235222136091;0
55014;BME280;40916;51.632;5.552;2022-11-20T02:34:53;1008.1928378460121;;;-4.76235222136091;0
55014;BME280;40916;51.632;5.552;2022-11-20T02:35:52;1008.1343330283834;;;-4.77858940284457;0
55014;BME280;40916;51.632;5.552;2022-11-20T02:36:52;1008.1434128207469;;;-4.794830195254743;0
55014;BME280;40916;51.632;5.552;2022-11-20T02:37:53;1008.1398552581602;;;-4.794830195254743;0
55014;BME280;40916;51.632;5.552;2022-11-20T02:38:53;1008.091027513618;;;-4.802951946467232;0
55014;BME280;40916;51.632;5.552;2022-11-20T02:39:53;1008.1107604974173;;;-4.819198160728639;0
55014;BME280;40916;51.632;5.552;2022-11-20T02:40:53;1008.114317866574;;;-4.819198160728639;0
55014;BME280;40916;51.632;5.552;2022-11-20T02:41:53;1008.1615304742767;;;-4.827322624506806;0
55014;BME280;40916;51.632;5.552;2022-11-20T02:42:53;1008.1039397242515;;;-4.851701446810701;0
55014;BME280;40916;51.632;5.552;2022-11-20T02:43:53;1008.152085954734;;;-4.867958524474702;0
55014;BME280;40916;51.632;5.552;2022-11-20T02:44:53;1008.2597404536662;;;-4.876088423242226;0
55014;BME280;40916;51.632;5.552;2022-11-20T02:45:53;1008.1852395902137;;;-4.90861709309366;0
55014;BME280;40916;51.632;5.552;2022-11-20T02:46:56;1008.114106311969;;;-4.90861709309366;0
55014;BME280;40916;51.632;5.552;2022-11-20T02:47:54;1008.2191038637093;;;-4.924886878021098;0
55014;BME280;40916;51.632;5.552;2022-11-20T02:48:54;1008.2209446135107;;;-4.941160300198558;0
55014;BME280;40916;51.632;5.552;2022-11-20T02:49:54;1008.2298843816404;;;-4.957437362566644;0
55014;BME280;40916;51.632;5.552;2022-11-20T02:50:54;1008.2708154605322;;;-4.973718068069143;0
55014;BME280;40916;51.632;5.552;2022-11-20T02:51:54;1008.2841758876194;;;-4.998145963647239;0
55014;BME280;40916;51.632;5.552;2022-11-20T02:52:54;1008.2228295452993;;;-4.990002419653003;0
55014;BME280;40916;51.632;5.552;2022-11-20T02:53:54;1008.2459223890929;;;-4.973718068069143;0
55014;BME280;40916;51.632;5.552;2022-11-20T02:54:54;1008.2921523832529;;;-4.973718068069143;0
55014;BME280;40916;51.632;5.552;2022-11-20T02:55:54;1008.3046181111093;;;-4.990002419653003;0
55014;BME280;40916;51.632;5.552;2022-11-20T02:56:54;1008.2530633586153;;;-5.006290420268364;0
55014;BME280;40916;51.632;5.552;2022-11-20T02:57:55;1008.2868379830949;;;-4.990002419653003;0
55014;BME280;40916;51.632;5.552;2022-11-20T02:58:55;1008.2094554780286;;;-4.9655772597419805;0
55014;BME280;40916;51.632;5.552;2022-11-20T02:59:55;1008.2085466990019;;;-4.957437362566644;0
55014;BME280;40916;51.632;5.552;2022-11-20T03:00:55;1008.1765401825636;;;-4.957437362566644;0
55014;BME280;40916;51.632;5.552;2022-11-20T03:01:55;1008.1747113050044;;;-4.941160300198558;0
55014;BME280;40916;51.632;5.552;2022-11-20T03:02:55;1008.1889369363856;;;-4.941160300198558;0
55014;BME280;40916;51.632;5.552;2022-11-20T03:03:55;1008.2201241260368;;;-4.9655772597419805;0
55014;BME280;40916;51.632;5.552;2022-11-20T03:04:55;1008.0787833364993;;;-4.973718068069143;0
55014;BME280;40916;51.632;5.552;2022-11-20T03:05:58;1008.1819116590267;;;-4.973718068069143;0
55014;BME280;40916;51.632;5.552;2022-11-20T03:06:55;1008.1365850593576;;;-4.981859787916594;0
55014;BME280;40916;51.632;5.552;2022-11-20T03:07:55;1008.1392747561221;;;-5.006290420268364;0
55014;BME280;40916;51.632;5.552;2022-11-20T03:08:56;1008.1037015122938;;;-5.038877380410053;0
55014;BME280;40916;51.632;5.552;2022-11-20T03:09:56;1008.0805633717299;;;-5.055176345852587;0
55014;BME280;40916;51.632;5.552;2022-11-20T03:10:56;1008.1365785351111;;;-5.047026405708586;0
55014;BME280;40916;51.632;5.552;2022-11-20T03:11:56;1008.1605916631718;;;-5.038877380410053;0
55014;BME280;40916;51.632;5.552;2022-11-20T03:12:56;1008.1072571458885;;;-5.038877380410053;0
55014;BME280;40916;51.632;5.552;2022-11-20T03:13:56;1008.1392747561221;;;-5.006290420268364;0
55014;BME280;40916;51.632;5.552;2022-11-20T03:14:56;1008.0663646270586;;;-4.990002419653003;0
55014;BME280;40916;51.632;5.552;2022-11-20T03:15:56;1008.1107886679481;;;-4.973718068069143;0
55014;BME280;40916;51.632;5.552;2022-11-20T03:16:56;1008.0574892685245;;;-5.006290420268364;0
55014;BME280;40916;51.632;5.552;2022-11-20T03:17:56;1008.0299339276223;;;-5.0144357898856455;0
55014;BME280;40916;51.632;5.552;2022-11-20T03:18:57;1008.1099326136275;;;-5.030729269586729;0
55014;BME280;40916;51.632;5.552;2022-11-20T03:19:57;1008.1197163373997;;;-5.022582072868548;0
55014;BME280;40916;51.632;5.552;2022-11-20T03:20:57;1008.1063769155909;;;-5.030729269586729;0
55014;BME280;40916;51.632;5.552;2022-11-20T03:21:57;1008.0788120802492;;;-5.038877380410053;0
55014;BME280;40916;51.632;5.552;2022-11-20T03:22:57;1008.1339393892918;;;-5.022582072868548;0
55014;BME280;40916;51.632;5.552;2022-11-20T03:23:57;1008.0583805254508;;;-5.0144357898856455;0
55014;BME280;40916;51.632;5.552;2022-11-20T03:24:57;1008.0201363970275;;;-4.990002419653003;0
55014;BME280;40916;51.632;5.552;2022-11-20T03:26:07;1007.9738324546626;;;-4.957437362566644;0
55014;BME280;40916;51.632;5.552;2022-11-20T03:26:57;1008.0004474652458;;;-4.941160300198558;0
55014;BME280;40916;51.632;5.552;2022-11-20T03:27:57;1008.0135839223356;;;-4.900483563680623;0
55014;BME280;40916;51.632;5.552;2022-11-20T03:28:59;1008.0586525140831;;;-4.8598295324528245;0
55014;BME280;40916;51.632;5.552;2022-11-20T03:29:58;1007.8985855356385;;;-4.8598295324528245;0
55014;BME280;40916;51.632;5.552;2022-11-20T03:30:58;1007.9587641845106;;;-4.827322624506806;0
55014;BME280;40916;51.632;5.552;2022-11-20T03:31:58;1007.9700726856717;;;-4.802951946467232;0
55014;BME280;40916;51.632;5.552;2022-11-20T03:32:58;1007.9356774108286;;;-4.75423498380729;0
55014;BME280;40916;51.632;5.552;2022-11-20T03:33:58;1007.915882055385;;;-4.738003213259734;0
55014;BME280;40916;51.632;5.552;2022-11-20T03:34:58;1007.9656907224778;;;-4.681220376129694;0
55014;BME280;40916;51.632;5.552;2022-11-20T03:36:00;1007.8497518498232;;;-4.665004799222412;0
55014;BME280;40916;51.632;5.552;2022-11-20T03:36:58;1007.7088805853459;;;-4.648792812943146;0
55014;BME280;40916;51.632;5.552;2022-11-20T03:37:58;1007.7971999082376;;;-4.616379600722322;0
55014;BME280;40916;51.632;5.552;2022-11-20T03:38:59;1007.764465736982;;;-4.583980716405502;0
55014;BME280;40916;51.632;5.552;2022-11-20T03:39:59;1007.7601498845942;;;-4.551596136980336;0
55014;BME280;40916;51.632;5.552;2022-11-20T03:40:59;1007.7984974779622;;;-4.519225839483745;0
55014;BME280;40916;51.632;5.552;2022-11-20T03:41:59;1007.7440007467511;;;-4.511135493974628;0
55014;BME280;40916;51.632;5.552;2022-11-20T03:42:59;1007.8367979905289;;;-4.48686980100176;0
55014;BME280;40916;51.632;5.552;2022-11-20T03:43:59;1007.8072052191765;;;-4.478783016671731;0
55014;BME280;40916;51.632;5.552;2022-11-20T03:44:59;1007.80496948967;;;-4.462612115862058;0
55014;BME280;40916;51.632;5.552;2022-11-20T03:45:59;1007.8394490615657;;;-4.454527998669409;0
55014;BME280;40916;51.632;5.552;2022-11-20T03:46:59;1007.8405712672843;;;-4.462612115862058;0
55014;BME280;40916;51.632;5.552;2022-11-20T03:47:59;1007.7718044803704;;;-4.454527998669409;0
55014;BME280;40916;51.632;5.552;2022-11-20T03:48:59;1007.9143921076168;;;-4.430280975666193;0
55014;BME280;40916;51.632;5.552;2022-11-20T03:49:59;1007.8871967135079;;;-4.414120730585118;0
55014;BME280;40916;51.632;5.552;2022-11-20T03:51:07;1007.8289416718651;;;-4.430280975666193;0
55014;BME280;40916;51.632;5.552;2022-11-20T03:52:00;1007.7658075471894;;;-4.462612115862058;0
55014;BME280;40916;51.632;5.552;2022-11-20T03:53:00;1007.7455671039827;;;-4.470697121744031;0
55014;BME280;40916;51.632;5.552;2022-11-20T03:54:00;1007.874846179265;;;-4.478783016671731;0
55014;BME280;40916;51.632;5.552;2022-11-20T03:55:00;1007.8078063827751;;;-4.535409204424241;0
55014;BME280;40916;51.632;5.552;2022-11-20T03:56:00;1007.8573379209943;;;-4.55969094200967;0
55014;BME280;40916;51.632;5.552;2022-11-20T03:57:00;1007.7893802571684;;;-4.583980716405502;0
55014;BME280;40916;51.632;5.552;2022-11-20T03:58:00;1007.7915172778353;;;-4.600178369015339;0
55014;BME280;40916;51.632;5.552;2022-11-20T03:59:00;1007.7502288707589;;;-4.583980716405502;0
55014;BME280;40916;51.632;5.552;2022-11-20T04:00:00;1007.7416900339607;;;-4.600178369015339;0
55014;BME280;40916;51.632;5.552;2022-11-20T04:01:04;1007.7609065202588;;;-4.583980716405502;0
55014;BME280;40916;51.632;5.552;2022-11-20T04:02:01;1007.6989809851882;;;-4.600178369015339;0
55014;BME280;40916;51.632;5.552;2022-11-20T04:03:01;1007.8153645138667;;;-4.592079095503038;0
55014;BME280;40916;51.632;5.552;2022-11-20T04:04:01;1007.8192640070596;;;-4.5677866400178075;0
55014;BME280;40916;51.632;5.552;2022-11-20T04:05:01;1007.8548574773262;;;-4.5677866400178075;0
55014;BME280;40916;51.632;5.552;2022-11-20T04:06:02;1007.6861629948484;;;-4.583980716405502;0
55014;BME280;40916;51.632;5.552;2022-11-20T04:07:01;1007.7028840183696;;;-4.575883231363452;0
55014;BME280;40916;51.632;5.552;2022-11-20T04:08:01;1007.7171211346118;;;-4.575883231363452;0
55014;BME280;40916;51.632;5.552;2022-11-20T04:09:01;1007.6843719965051;;;-4.624481559636525;0
55014;BME280;40916;51.632;5.552;2022-11-20T04:10:02;1007.7216430708187;;;-4.665004799222412;0
55014;BME280;40916;51.632;5.552;2022-11-20T04:11:09;1007.6719098922592;;;-4.721775046371704;0
55014;BME280;40916;51.632;5.552;2022-11-20T04:12:02;1007.5682090968098;;;-4.746118647894615;0
55014;BME280;40916;51.632;5.552;2022-11-20T04:13:02;1007.5793346403896;;;-4.77858940284457;0
55014;BME280;40916;51.632;5.552;2022-11-20T04:14:03;1007.5848768598285;;;-4.794830195254743;0